createdAt,value
2023-01-18T04:18:21.548Z,98803.97
2023-01-18T04:21:20.654Z,98814.41
2023-01-18T04:24:23.584Z,98819.53
2023-01-18T04:27:00.387Z,98805.38
2023-01-18T04:41:33.339Z,98821.81
2023-01-18T04:44:15.231Z,98807.22
2023-01-18T04:46:47.207Z,98808.03
2023-01-18T04:49:46.964Z,98800.25
2023-01-18T05:03:35.156Z,98817.13
2023-01-18T05:06:20.073Z,98827.38
2023-01-18T05:09:10.328Z,98825.75
2023-01-18T05:20:43.825Z,98848.56
2023-01-18T05:31:02.802Z,98853.91
2023-01-18T05:37:24.026Z,98863.53
2023-01-18T05:40:12.982Z,98864.34
2023-01-18T05:43:39.318Z,98859.63
2023-01-18T05:59:17.813Z,98870.44
2023-01-18T06:02:06.490Z,98872.06
2023-01-18T06:08:43.867Z,98870.22
2023-01-18T06:33:07.627Z,98890.75
2023-01-18T06:35:46.629Z,98889.13
2023-01-18T06:38:51.998Z,98894.47
2023-01-18T06:41:30.458Z,98895.88
2023-01-18T06:54:43.564Z,98922.16
2023-01-18T07:04:28.996Z,98924.59
2023-01-18T07:08:06.480Z,98930.13
2023-01-18T07:53:15.547Z,98936.31
2023-01-18T08:25:30.734Z,98935.69
2023-01-18T09:23:27.991Z,98972.44
2023-01-18T09:55:06.586Z,98961.66
2023-01-18T10:25:48.280Z,98971.16
2023-01-18T10:31:56.777Z,98970.34
2023-01-18T10:35:07.407Z,98959.22
2023-01-18T11:08:28.077Z,98968.66
2023-01-18T11:52:10.161Z,98930.66
2023-01-18T11:55:15.519Z,98940.09
2023-01-18T12:12:19.912Z,98931.50
2023-01-18T12:36:40.032Z,98944.53
2023-01-18T12:54:27.505Z,98947.66
2023-01-18T13:05:09.452Z,98960.59
2023-01-18T13:11:55.678Z,98952.56
2023-01-18T13:15:57.884Z,98954.22
2023-01-18T13:18:31.852Z,98952.94
2023-01-18T13:21:15.987Z,98955.63
2023-01-18T13:23:58.355Z,98945.75
2023-01-18T13:26:37.976Z,98942.84
2023-01-18T13:29:20.264Z,98946.56
2023-01-18T13:31:50.966Z,98950.50
2023-01-18T13:34:48.517Z,98941.66
2023-01-18T13:37:49.312Z,98950.50
2023-01-18T13:40:55.923Z,98942.47
2023-01-18T13:44:19.572Z,98932.00
2023-01-18T13:47:20.727Z,98949.28
2023-01-18T13:50:40.070Z,98934.28
2023-01-18T13:53:26.286Z,98928.94
2023-01-18T13:56:27.565Z,98931.19
2023-01-18T13:59:28.060Z,98946.78
2023-01-18T14:02:25.299Z,98948.41
2023-01-18T14:05:33.637Z,98944.94
2023-01-18T14:08:02.057Z,98929.91
2023-01-18T14:10:40.921Z,98922.50
2023-01-18T14:13:29.663Z,98918.78
2023-01-18T14:59:56.249Z,98919.16
2023-01-18T15:41:51.458Z,98908.97
2023-01-18T15:49:33.469Z,98914.16
2023-01-18T15:54:04.746Z,98915.00
2023-01-18T15:56:48.489Z,98903.72
2023-01-18T16:02:25.888Z,98905.19
2023-01-18T16:05:44.489Z,98897.16
2023-01-18T16:08:53.285Z,98904.97
2023-01-18T16:12:08.305Z,98901.47
2023-01-18T16:15:29.832Z,98908.69
2023-01-18T16:18:10.900Z,98924.13
2023-01-18T16:23:06.804Z,98931.16
2023-01-18T16:33:52.498Z,98915.41
2023-01-18T16:36:34.763Z,98935.81
2023-01-18T16:39:31.749Z,98933.31
2023-01-18T16:50:21.057Z,98921.59
2023-01-18T16:53:32.295Z,98930.63
2023-01-18T16:57:09.143Z,98905.78
2023-01-18T16:59:45.626Z,98924.91
2023-01-18T17:06:32.404Z,98907.91
2023-01-18T17:09:08.641Z,98898.47
2023-01-18T17:12:44.084Z,98910.41
2023-01-18T17:17:22.076Z,98908.97
2023-01-18T17:21:58.561Z,98917.66
2023-01-18T17:29:06.182Z,98909.47
2023-01-18T17:31:33.775Z,98921.41
2023-01-18T17:34:08.117Z,98919.19
2023-01-18T17:36:38.286Z,98898.63
2023-01-18T17:39:06.293Z,98916.72
2023-01-18T17:41:34.280Z,98914.06
2023-01-18T17:44:07.482Z,98908.91
2023-01-18T17:46:38.437Z,98920.84
2023-01-18T17:49:11.884Z,98907.13
2023-01-18T17:51:40.233Z,98902.81
2023-01-18T17:54:13.131Z,98889.66
2023-01-18T17:56:47.944Z,98892.56
2023-01-18T17:59:20.663Z,98903.88
2023-01-18T18:01:51.825Z,98905.31
2023-01-18T18:04:25.598Z,98900.19
2023-01-18T18:06:54.426Z,98897.53
2023-01-18T18:09:38.975Z,98898.94
2023-01-18T18:12:12.802Z,98897.69
2023-01-18T18:14:43.999Z,98893.19
2023-01-18T18:17:13.511Z,98896.88
2023-01-18T18:19:40.920Z,98902.44
2023-01-18T18:22:13.159Z,98881.06
2023-01-18T18:24:47.046Z,98874.69
2023-01-18T18:27:26.585Z,98870.19
2023-01-18T18:30:17.925Z,98882.53
2023-01-18T18:32:45.962Z,98879.22
2023-01-18T18:35:26.749Z,98875.94
2023-01-18T18:38:00.437Z,98871.63
2023-01-18T18:40:42.647Z,98872.47
2023-01-18T18:43:10.004Z,98878.00
2023-01-18T18:46:06.169Z,98870.22
2023-01-18T18:52:18.335Z,98868.59
2023-01-18T18:54:57.898Z,98862.41
2023-01-18T18:57:57.697Z,98858.72
2023-01-18T19:00:56.769Z,98852.34
2023-01-18T19:06:46.307Z,98859.09
2023-01-18T19:09:48.607Z,98846.56
2023-01-18T19:12:21.034Z,98854.59
2023-01-18T19:15:04.482Z,98847.41
2023-01-18T19:17:59.633Z,98846.56
2023-01-18T19:20:51.127Z,98841.25
2023-01-18T19:23:21.036Z,98842.06
2023-01-18T19:25:52.805Z,98850.88
2023-01-18T19:28:22.634Z,98843.47
2023-01-18T19:30:49.891Z,98834.25
2023-01-18T19:33:25.323Z,98842.25
2023-01-18T19:36:55.151Z,98849.44
2023-01-18T19:39:00.162Z,98827.88
2023-01-18T19:41:54.889Z,98841.00
2023-01-18T19:45:04.981Z,98839.16
2023-01-18T19:48:26.449Z,98801.97
2023-01-18T19:51:10.197Z,98812.88
2023-01-18T19:53:57.612Z,98811.63
2023-01-18T19:56:37.254Z,98802.59
2023-01-18T19:59:15.289Z,98810.16
2023-01-18T20:01:47.626Z,98812.84
2023-01-18T20:04:21.698Z,98799.25
2023-01-18T20:06:48.815Z,98800.06
2023-01-18T20:09:21.201Z,98808.69
2023-01-18T20:11:50.815Z,98796.00
2023-01-18T20:14:19.774Z,98799.09
2023-01-18T20:16:48.229Z,98801.78
2023-01-18T20:19:19.422Z,98789.44
2023-01-18T20:21:49.920Z,98801.16
2023-01-18T20:24:17.035Z,98801.56
2023-01-18T20:26:44.119Z,98798.72
2023-01-18T20:29:11.286Z,98786.78
2023-01-18T20:31:49.708Z,98793.75
2023-01-18T20:34:17.090Z,98796.44
2023-01-18T20:36:46.565Z,98775.66
2023-01-18T20:39:14.509Z,98788.19
2023-01-18T20:41:46.168Z,98773.81
2023-01-18T20:44:58.746Z,98791.69
2023-01-18T20:47:45.985Z,98796.22
2023-01-18T20:50:31.784Z,98785.53
2023-01-18T20:54:00.526Z,98786.94
2023-01-18T20:56:57.779Z,98786.72
2023-01-18T21:02:52.000Z,98790.44
2023-01-18T21:05:35.039Z,98790.44
2023-01-18T21:08:09.242Z,98780.34
2023-01-18T21:10:38.946Z,98777.47
2023-01-18T21:13:07.042Z,98782.59
2023-01-18T21:15:34.422Z,98771.47
2023-01-18T21:18:04.041Z,98781.09
2023-01-18T21:20:31.664Z,98769.38
2023-01-18T21:23:02.048Z,98780.88
2023-01-18T21:25:29.502Z,98780.44
2023-01-18T21:27:59.587Z,98774.66
2023-01-18T21:30:27.178Z,98771.78
2023-01-18T21:32:56.889Z,98773.41
2023-01-18T21:35:30.003Z,98749.19
2023-01-18T21:37:59.896Z,98746.28
2023-01-18T21:40:35.381Z,98765.59
2023-01-18T21:43:34.950Z,98750.97
2023-01-18T21:46:56.917Z,98758.53
2023-01-18T21:50:16.601Z,98761.00
2023-01-18T21:53:07.267Z,98764.47
2023-01-18T21:56:06.747Z,98746.16
2023-01-18T22:02:49.106Z,98748.53
2023-01-18T22:05:30.113Z,98742.75
2023-01-18T22:08:10.827Z,98745.81
2023-01-18T22:11:11.366Z,98751.75
2023-01-18T22:13:51.067Z,98745.16
2023-01-18T22:17:02.889Z,98745.31
2023-01-18T22:19:54.964Z,98743.00
2023-01-18T22:22:41.804Z,98749.75
2023-01-18T22:25:37.563Z,98749.53
2023-01-18T22:28:50.463Z,98738.84
2023-01-18T22:32:18.539Z,98740.25
2023-01-18T22:34:58.984Z,98744.56
2023-01-18T22:38:07.326Z,98755.84
2023-01-18T22:40:55.695Z,98730.75
2023-01-18T22:43:29.234Z,98730.16
2023-01-18T22:45:58.137Z,98734.09
2023-01-18T22:48:25.919Z,98729.63
2023-01-18T22:50:57.198Z,98731.72
2023-01-18T22:53:29.981Z,98736.47
2023-01-18T22:56:03.727Z,98741.22
2023-01-18T22:58:31.465Z,98745.53
2023-01-18T23:00:58.925Z,98737.50
2023-01-18T23:03:26.351Z,98743.91
2023-01-18T23:06:00.507Z,98741.00
2023-01-18T23:08:59.032Z,98743.22
2023-01-18T23:11:49.250Z,98713.59
2023-01-18T23:14:46.073Z,98706.16
2023-01-18T23:17:41.387Z,98708.84
2023-01-18T23:20:20.241Z,98694.44
2023-01-18T23:23:43.670Z,98687.00
2023-01-18T23:26:17.028Z,98686.78
2023-01-18T23:29:12.867Z,98678.53
2023-01-18T23:32:39.536Z,98673.56
2023-01-18T23:35:42.976Z,98698.19
2023-01-18T23:38:18.491Z,98702.53
2023-01-18T23:41:09.019Z,98696.16
2023-01-18T23:44:18.153Z,98680.69
2023-01-18T23:47:13.049Z,98692.00
2023-01-18T23:54:13.680Z,98672.44
2023-01-18T23:58:16.822Z,98676.97
